sensor_id;sensor_type;location;lat;lon;timestamp;P1;durP1;ratioP1;P2;durP2;ratioP2
77117;SDS011;66072;50.238;19.228;2024-02-14T00:00:59;46.00;;;23.30;;
77117;SDS011;66072;50.238;19.228;2024-02-14T00:03:38;48.60;;;25.80;;
77117;SDS011;66072;50.238;19.228;2024-02-14T00:06:06;54.20;;;31.50;;
77117;SDS011;66072;50.238;19.228;2024-02-14T00:08:34;60.90;;;33.00;;
77117;SDS011;66072;50.238;19.228;2024-02-14T00:11:02;69.80;;;38.50;;
77117;SDS011;66072;50.238;19.228;2024-02-14T00:13:30;77.80;;;40.20;;
77117;SDS011;66072;50.238;19.228;2024-02-14T00:15:57;89.00;;;51.60;;
77117;SDS011;66072;50.238;19.228;2024-02-14T00:18:25;100.10;;;51.90;;
77117;SDS011;66072;50.238;19.228;2024-02-14T00:20:54;103.00;;;56.30;;
77117;SDS011;66072;50.238;19.228;2024-02-14T00:23:21;105.00;;;56.40;;
77117;SDS011;66072;50.238;19.228;2024-02-14T00:25:49;101.60;;;57.00;;
77117;SDS011;66072;50.238;19.228;2024-02-14T00:28:17;119.70;;;64.80;;
77117;SDS011;66072;50.238;19.228;2024-02-14T00:30:45;116.40;;;60.80;;
77117;SDS011;66072;50.238;19.228;2024-02-14T00:33:13;101.50;;;55.30;;
77117;SDS011;66072;50.238;19.228;2024-02-14T00:35:41;107.40;;;57.10;;
77117;SDS011;66072;50.238;19.228;2024-02-14T00:38:08;102.40;;;55.00;;
77117;SDS011;66072;50.238;19.228;2024-02-14T00:40:36;100.70;;;58.50;;
77117;SDS011;66072;50.238;19.228;2024-02-14T00:43:04;122.20;;;65.80;;
77117;SDS011;66072;50.238;19.228;2024-02-14T00:45:31;126.10;;;66.70;;
77117;SDS011;66072;50.238;19.228;2024-02-14T00:47:59;130.80;;;67.60;;
77117;SDS011;66072;50.238;19.228;2024-02-14T00:50:27;121.60;;;65.90;;
77117;SDS011;66072;50.238;19.228;2024-02-14T00:52:55;114.60;;;64.30;;
77117;SDS011;66072;50.238;19.228;2024-02-14T00:55:22;114.60;;;61.20;;
77117;SDS011;66072;50.238;19.228;2024-02-14T00:57:50;92.10;;;49.00;;
77117;SDS011;66072;50.238;19.228;2024-02-14T01:00:18;92.90;;;52.10;;
77117;SDS011;66072;50.238;19.228;2024-02-14T01:02:46;73.30;;;44.90;;
77117;SDS011;66072;50.238;19.228;2024-02-14T01:05:14;70.40;;;39.30;;
77117;SDS011;66072;50.238;19.228;2024-02-14T01:07:42;58.00;;;34.40;;
77117;SDS011;66072;50.238;19.228;2024-02-14T01:10:10;62.30;;;34.80;;
77117;SDS011;66072;50.238;19.228;2024-02-14T01:12:37;62.10;;;35.70;;
77117;SDS011;66072;50.238;19.228;2024-02-14T01:15:05;57.60;;;35.30;;
77117;SDS011;66072;50.238;19.228;2024-02-14T01:17:33;54.60;;;33.90;;
77117;SDS011;66072;50.238;19.228;2024-02-14T01:20:02;46.90;;;30.40;;
77117;SDS011;66072;50.238;19.228;2024-02-14T01:22:30;51.30;;;31.30;;
77117;SDS011;66072;50.238;19.228;2024-02-14T01:24:57;48.50;;;29.60;;
77117;SDS011;66072;50.238;19.228;2024-02-14T01:27:25;50.70;;;29.90;;
77117;SDS011;66072;50.238;19.228;2024-02-14T01:29:53;48.40;;;30.00;;
77117;SDS011;66072;50.238;19.228;2024-02-14T01:32:21;58.60;;;36.00;;
77117;SDS011;66072;50.238;19.228;2024-02-14T01:34:48;64.00;;;36.80;;
77117;SDS011;66072;50.238;19.228;2024-02-14T01:37:16;53.50;;;33.20;;
77117;SDS011;66072;50.238;19.228;2024-02-14T01:39:44;53.00;;;33.20;;
77117;SDS011;66072;50.238;19.228;2024-02-14T01:42:12;51.10;;;31.40;;
77117;SDS011;66072;50.238;19.228;2024-02-14T01:44:39;46.30;;;27.50;;
77117;SDS011;66072;50.238;19.228;2024-02-14T01:47:07;41.90;;;25.80;;
77117;SDS011;66072;50.238;19.228;2024-02-14T01:49:35;40.80;;;25.50;;
77117;SDS011;66072;50.238;19.228;2024-02-14T01:52:03;37.20;;;22.10;;
77117;SDS011;66072;50.238;19.228;2024-02-14T01:54:33;37.80;;;21.90;;
77117;SDS011;66072;50.238;19.228;2024-02-14T01:57:01;34.50;;;21.80;;
77117;SDS011;66072;50.238;19.228;2024-02-14T01:59:29;33.30;;;20.70;;
77117;SDS011;66072;50.238;19.228;2024-02-14T02:01:57;35.60;;;21.00;;
77117;SDS011;66072;50.238;19.228;2024-02-14T02:04:25;34.10;;;18.50;;
77117;SDS011;66072;50.238;19.228;2024-02-14T02:06:53;35.50;;;18.60;;
77117;SDS011;66072;50.238;19.228;2024-02-14T02:09:21;33.80;;;19.10;;
77117;SDS011;66072;50.238;19.228;2024-02-14T02:11:49;37.40;;;19.30;;
77117;SDS011;66072;50.238;19.228;2024-02-14T02:14:19;33.80;;;18.80;;
77117;SDS011;66072;50.238;19.228;2024-02-14T02:16:47;40.70;;;21.40;;
77117;SDS011;66072;50.238;19.228;2024-02-14T02:19:15;34.70;;;19.60;;
77117;SDS011;66072;50.238;19.228;2024-02-14T02:21:43;29.90;;;18.60;;
77117;SDS011;66072;50.238;19.228;2024-02-14T02:24:10;33.20;;;19.60;;
77117;SDS011;66072;50.238;19.228;2024-02-14T02:26:38;29.70;;;17.30;;
77117;SDS011;66072;50.238;19.228;2024-02-14T02:29:06;30.60;;;19.70;;
77117;SDS011;66072;50.238;19.228;2024-02-14T02:31:34;31.30;;;17.50;;
77117;SDS011;66072;50.238;19.228;2024-02-14T02:34:01;36.30;;;20.60;;
77117;SDS011;66072;50.238;19.228;2024-02-14T02:36:29;43.80;;;22.70;;
77117;SDS011;66072;50.238;19.228;2024-02-14T02:38:57;42.50;;;22.60;;
77117;SDS011;66072;50.238;19.228;2024-02-14T02:41:25;37.10;;;23.00;;
77117;SDS011;66072;50.238;19.228;2024-02-14T02:43:53;41.80;;;22.40;;
77117;SDS011;66072;50.238;19.228;2024-02-14T02:46:21;38.60;;;22.10;;
77117;SDS011;66072;50.238;19.228;2024-02-14T02:48:49;37.10;;;22.40;;
77117;SDS011;66072;50.238;19.228;2024-02-14T02:51:17;36.60;;;19.60;;
77117;SDS011;66072;50.238;19.228;2024-02-14T02:53:45;38.00;;;22.80;;
77117;SDS011;66072;50.238;19.228;2024-02-14T02:56:12;39.40;;;23.10;;
77117;SDS011;66072;50.238;19.228;2024-02-14T02:58:40;43.00;;;26.00;;
77117;SDS011;66072;50.238;19.228;2024-02-14T03:01:08;44.10;;;28.40;;
77117;SDS011;66072;50.238;19.228;2024-02-14T03:03:36;47.60;;;29.30;;
77117;SDS011;66072;50.238;19.228;2024-02-14T03:06:04;43.60;;;26.50;;
77117;SDS011;66072;50.238;19.228;2024-02-14T03:08:33;36.40;;;22.90;;
77117;SDS011;66072;50.238;19.228;2024-02-14T03:11:04;33.30;;;21.50;;
77117;SDS011;66072;50.238;19.228;2024-02-14T03:13:33;35.70;;;22.50;;
77117;SDS011;66072;50.238;19.228;2024-02-14T03:16:00;39.10;;;22.50;;
77117;SDS011;66072;50.238;19.228;2024-02-14T03:18:28;40.90;;;21.90;;
77117;SDS011;66072;50.238;19.228;2024-02-14T03:20:56;37.40;;;21.70;;
77117;SDS011;66072;50.238;19.228;2024-02-14T03:23:24;34.20;;;20.40;;
77117;SDS011;66072;50.238;19.228;2024-02-14T03:25:51;37.00;;;21.90;;
77117;SDS011;66072;50.238;19.228;2024-02-14T03:28:19;40.60;;;22.90;;
77117;SDS011;66072;50.238;19.228;2024-02-14T03:30:47;39.30;;;24.60;;
77117;SDS011;66072;50.238;19.228;2024-02-14T03:33:15;45.80;;;28.10;;
77117;SDS011;66072;50.238;19.228;2024-02-14T03:35:43;45.40;;;26.80;;
77117;SDS011;66072;50.238;19.228;2024-02-14T03:38:11;41.10;;;24.60;;
77117;SDS011;66072;50.238;19.228;2024-02-14T03:40:39;40.80;;;23.20;;
77117;SDS011;66072;50.238;19.228;2024-02-14T03:43:06;37.50;;;22.10;;
77117;SDS011;66072;50.238;19.228;2024-02-14T03:45:34;40.80;;;23.80;;
77117;SDS011;66072;50.238;19.228;2024-02-14T03:48:02;43.90;;;25.10;;
77117;SDS011;66072;50.238;19.228;2024-02-14T03:50:30;36.80;;;24.10;;
77117;SDS011;66072;50.238;19.228;2024-02-14T03:52:58;37.00;;;23.70;;
77117;SDS011;66072;50.238;19.228;2024-02-14T03:55:25;42.40;;;24.30;;
77117;SDS011;66072;50.238;19.228;2024-02-14T03:57:53;43.20;;;25.70;;
77117;SDS011;66072;50.238;19.228;2024-02-14T04:00:21;46.10;;;26.60;;
77117;SDS011;66072;50.238;19.228;2024-02-14T04:02:49;40.70;;;24.90;;
77117;SDS011;66072;50.238;19.228;2024-02-14T04:05:17;40.70;;;24.50;;
77117;SDS011;66072;50.238;19.228;2024-02-14T04:07:44;47.00;;;27.60;;
77117;SDS011;66072;50.238;19.228;2024-02-14T04:10:12;48.90;;;27.10;;
77117;SDS011;66072;50.238;19.228;2024-02-14T04:12:40;37.50;;;20.70;;
77117;SDS011;66072;50.238;19.228;2024-02-14T04:15:08;39.20;;;23.70;;
77117;SDS011;66072;50.238;19.228;2024-02-14T04:17:36;41.80;;;24.40;;
77117;SDS011;66072;50.238;19.228;2024-02-14T04:20:04;40.40;;;24.60;;
77117;SDS011;66072;50.238;19.228;2024-02-14T04:22:32;45.30;;;26.60;;
77117;SDS011;66072;50.238;19.228;2024-02-14T04:25:00;51.10;;;28.00;;
77117;SDS011;66072;50.238;19.228;2024-02-14T04:27:27;47.30;;;26.90;;
77117;SDS011;66072;50.238;19.228;2024-02-14T04:29:55;46.60;;;27.70;;
77117;SDS011;66072;50.238;19.228;2024-02-14T04:32:23;45.10;;;25.80;;
77117;SDS011;66072;50.238;19.228;2024-02-14T04:34:51;42.40;;;24.40;;
77117;SDS011;66072;50.238;19.228;2024-02-14T04:37:19;43.20;;;26.30;;
77117;SDS011;66072;50.238;19.228;2024-02-14T04:39:46;37.30;;;23.20;;
77117;SDS011;66072;50.238;19.228;2024-02-14T04:42:14;31.60;;;18.90;;
77117;SDS011;66072;50.238;19.228;2024-02-14T04:44:42;40.50;;;23.10;;
77117;SDS011;66072;50.238;19.228;2024-02-14T04:47:10;38.80;;;22.10;;
77117;SDS011;66072;50.238;19.228;2024-02-14T04:49:37;43.90;;;21.80;;
77117;SDS011;66072;50.238;19.228;2024-02-14T04:52:05;46.50;;;23.70;;
77117;SDS011;66072;50.238;19.228;2024-02-14T04:54:33;46.10;;;27.00;;
77117;SDS011;66072;50.238;19.228;2024-02-14T04:57:01;49.50;;;30.00;;
77117;SDS011;66072;50.238;19.228;2024-02-14T04:59:30;46.10;;;28.00;;
77117;SDS011;66072;50.238;19.228;2024-02-14T05:01:58;52.90;;;31.10;;
77117;SDS011;66072;50.238;19.228;2024-02-14T05:04:26;60.30;;;33.30;;
77117;SDS011;66072;50.238;19.228;2024-02-14T05:06:53;47.70;;;27.50;;
77117;SDS011;66072;50.238;19.228;2024-02-14T05:09:25;48.60;;;25.90;;
77117;SDS011;66072;50.238;19.228;2024-02-14T05:11:53;40.60;;;23.50;;
77117;SDS011;66072;50.238;19.228;2024-02-14T05:14:21;44.30;;;23.70;;
77117;SDS011;66072;50.238;19.228;2024-02-14T05:16:49;52.40;;;27.70;;
77117;SDS011;66072;50.238;19.228;2024-02-14T05:19:17;46.90;;;26.60;;
77117;SDS011;66072;50.238;19.228;2024-02-14T05:21:45;49.00;;;26.50;;
77117;SDS011;66072;50.238;19.228;2024-02-14T05:24:13;51.50;;;27.90;;
77117;SDS011;66072;50.238;19.228;2024-02-14T05:26:41;53.50;;;29.90;;
77117;SDS011;66072;50.238;19.228;2024-02-14T05:29:09;53.90;;;31.00;;
77117;SDS011;66072;50.238;19.228;2024-02-14T05:31:44;57.00;;;28.90;;
77117;SDS011;66072;50.238;19.228;2024-02-14T05:34:12;58.50;;;32.40;;
77117;SDS011;66072;50.238;19.228;2024-02-14T05:36:41;57.70;;;30.40;;
77117;SDS011;66072;50.238;19.228;2024-02-14T05:39:09;72.10;;;35.90;;
77117;SDS011;66072;50.238;19.228;2024-02-14T05:41:37;60.80;;;34.80;;
77117;SDS011;66072;50.238;19.228;2024-02-14T05:44:04;65.00;;;34.70;;
77117;SDS011;66072;50.238;19.228;2024-02-14T05:46:32;65.20;;;35.30;;
77117;SDS011;66072;50.238;19.228;2024-02-14T05:49:00;69.60;;;37.00;;
77117;SDS011;66072;50.238;19.228;2024-02-14T05:51:28;70.20;;;38.40;;
77117;SDS011;66072;50.238;19.228;2024-02-14T05:53:56;67.90;;;38.30;;
77117;SDS011;66072;50.238;19.228;2024-02-14T05:56:23;66.00;;;33.60;;
77117;SDS011;66072;50.238;19.228;2024-02-14T05:58:51;67.00;;;36.50;;
77117;SDS011;66072;50.238;19.228;2024-02-14T06:01:19;66.20;;;35.00;;
77117;SDS011;66072;50.238;19.228;2024-02-14T06:03:47;62.80;;;36.70;;
77117;SDS011;66072;50.238;19.228;2024-02-14T06:06:15;64.30;;;35.40;;
77117;SDS011;66072;50.238;19.228;2024-02-14T06:08:43;58.20;;;32.00;;
77117;SDS011;66072;50.238;19.228;2024-02-14T06:11:10;60.40;;;35.00;;
77117;SDS011;66072;50.238;19.228;2024-02-14T06:13:38;58.10;;;34.10;;
77117;SDS011;66072;50.238;19.228;2024-02-14T06:16:07;64.10;;;35.90;;
77117;SDS011;66072;50.238;19.228;2024-02-14T06:18:35;71.60;;;38.00;;
77117;SDS011;66072;50.238;19.228;2024-02-14T06:21:03;75.20;;;38.90;;
77117;SDS011;66072;50.238;19.228;2024-02-14T06:23:31;67.60;;;37.20;;
77117;SDS011;66072;50.238;19.228;2024-02-14T06:25:59;66.50;;;36.40;;
77117;SDS011;66072;50.238;19.228;2024-02-14T06:28:26;68.70;;;37.80;;
77117;SDS011;66072;50.238;19.228;2024-02-14T06:30:54;72.50;;;40.40;;
77117;SDS011;66072;50.238;19.228;2024-02-14T06:33:22;66.90;;;37.40;;
77117;SDS011;66072;50.238;19.228;2024-02-14T06:35:50;66.20;;;38.40;;
77117;SDS011;66072;50.238;19.228;2024-02-14T06:38:18;64.10;;;36.30;;
77117;SDS011;66072;50.238;19.228;2024-02-14T06:40:46;66.70;;;39.90;;
77117;SDS011;66072;50.238;19.228;2024-02-14T06:43:14;69.50;;;38.60;;
77117;SDS011;66072;50.238;19.228;2024-02-14T06:45:41;75.00;;;41.30;;
77117;SDS011;66072;50.238;19.228;2024-02-14T06:48:09;69.70;;;38.90;;
77117;SDS011;66072;50.238;19.228;2024-02-14T06:50:37;76.00;;;40.80;;
77117;SDS011;66072;50.238;19.228;2024-02-14T06:53:05;74.20;;;39.20;;
77117;SDS011;66072;50.238;19.228;2024-02-14T06:55:33;67.80;;;39.70;;
77117;SDS011;66072;50.238;19.228;2024-02-14T06:58:01;67.20;;;39.80;;
77117;SDS011;66072;50.238;19.228;2024-02-14T07:00:29;69.80;;;39.30;;
77117;SDS011;66072;50.238;19.228;2024-02-14T07:02:57;70.00;;;40.30;;
77117;SDS011;66072;50.238;19.228;2024-02-14T07:05:25;70.80;;;40.40;;
77117;SDS011;66072;50.238;19.228;2024-02-14T07:07:56;68.00;;;38.00;;
77117;SDS011;66072;50.238;19.228;2024-02-14T07:10:24;66.40;;;37.80;;
77117;SDS011;66072;50.238;19.228;2024-02-14T07:12:52;75.30;;;38.10;;
77117;SDS011;66072;50.238;19.228;2024-02-14T07:15:19;65.40;;;36.80;;
77117;SDS011;66072;50.238;19.228;2024-02-14T07:17:48;55.60;;;31.80;;
77117;SDS011;66072;50.238;19.228;2024-02-14T07:20:15;52.10;;;30.50;;
77117;SDS011;66072;50.238;19.228;2024-02-14T07:22:43;58.10;;;32.30;;
77117;SDS011;66072;50.238;19.228;2024-02-14T07:25:11;64.70;;;36.90;;
77117;SDS011;66072;50.238;19.228;2024-02-14T07:27:39;52.60;;;32.30;;
77117;SDS011;66072;50.238;19.228;2024-02-14T07:30:07;61.10;;;32.50;;
77117;SDS011;66072;50.238;19.228;2024-02-14T07:32:36;58.40;;;33.50;;
77117;SDS011;66072;50.238;19.228;2024-02-14T07:35:04;57.20;;;31.30;;
77117;SDS011;66072;50.238;19.228;2024-02-14T07:37:32;48.70;;;29.80;;
77117;SDS011;66072;50.238;19.228;2024-02-14T07:40:00;62.80;;;34.80;;
77117;SDS011;66072;50.238;19.228;2024-02-14T07:42:28;56.00;;;33.60;;
77117;SDS011;66072;50.238;19.228;2024-02-14T07:44:56;70.80;;;37.20;;
77117;SDS011;66072;50.238;19.228;2024-02-14T07:47:24;65.50;;;35.00;;
77117;SDS011;66072;50.238;19.228;2024-02-14T07:49:52;56.80;;;32.90;;
77117;SDS011;66072;50.238;19.228;2024-02-14T07:52:19;66.10;;;36.50;;
77117;SDS011;66072;50.238;19.228;2024-02-14T07:54:47;54.60;;;31.30;;
77117;SDS011;66072;50.238;19.228;2024-02-14T07:57:19;57.40;;;34.90;;
77117;SDS011;66072;50.238;19.228;2024-02-14T07:59:46;59.90;;;33.60;;
77117;SDS011;66072;50.238;19.228;2024-02-14T08:02:14;56.80;;;31.50;;
77117;SDS011;66072;50.238;19.228;2024-02-14T08:04:42;46.70;;;28.40;;
77117;SDS011;66072;50.238;19.228;2024-02-14T08:07:10;50.50;;;28.90;;
77117;SDS011;66072;50.238;19.228;2024-02-14T08:09:37;47.90;;;28.00;;
77117;SDS011;66072;50.238;19.228;2024-02-14T08:12:05;50.30;;;28.40;;
77117;SDS011;66072;50.238;19.228;2024-02-14T08:14:33;50.90;;;28.70;;
77117;SDS011;66072;50.238;19.228;2024-02-14T08:17:01;49.20;;;30.60;;
77117;SDS011;66072;50.238;19.228;2024-02-14T08:19:29;48.10;;;28.60;;
77117;SDS011;66072;50.238;19.228;2024-02-14T08:21:57;44.70;;;26.20;;
77117;SDS011;66072;50.238;19.228;2024-02-14T08:24:25;41.80;;;23.60;;
77117;SDS011;66072;50.238;19.228;2024-02-14T08:26:56;40.90;;;24.80;;
77117;SDS011;66072;50.238;19.228;2024-02-14T08:29:24;42.60;;;25.10;;
77117;SDS011;66072;50.238;19.228;2024-02-14T08:31:52;42.90;;;26.40;;
77117;SDS011;66072;50.238;19.228;2024-02-14T08:34:19;39.10;;;26.10;;
77117;SDS011;66072;50.238;19.228;2024-02-14T08:36:47;43.90;;;25.50;;
77117;SDS011;66072;50.238;19.228;2024-02-14T08:39:15;38.60;;;23.10;;
77117;SDS011;66072;50.238;19.228;2024-02-14T08:41:43;42.30;;;25.90;;
77117;SDS011;66072;50.238;19.228;2024-02-14T08:44:11;45.90;;;26.10;;
77117;SDS011;66072;50.238;19.228;2024-02-14T08:46:39;37.30;;;21.80;;
77117;SDS011;66072;50.238;19.228;2024-02-14T08:49:07;43.60;;;26.30;;
77117;SDS011;66072;50.238;19.228;2024-02-14T08:51:38;43.70;;;23.50;;
77117;SDS011;66072;50.238;19.228;2024-02-14T08:54:06;36.00;;;22.20;;
77117;SDS011;66072;50.238;19.228;2024-02-14T08:56:34;40.90;;;22.90;;
77117;SDS011;66072;50.238;19.228;2024-02-14T08:59:02;45.30;;;27.20;;
77117;SDS011;66072;50.238;19.228;2024-02-14T09:01:30;46.70;;;26.30;;
77117;SDS011;66072;50.238;19.228;2024-02-14T09:03:58;46.50;;;25.60;;
77117;SDS011;66072;50.238;19.228;2024-02-14T09:06:26;45.30;;;27.50;;
77117;SDS011;66072;50.238;19.228;2024-02-14T09:08:54;35.50;;;21.40;;
77117;SDS011;66072;50.238;19.228;2024-02-14T09:11:22;50.00;;;29.40;;
77117;SDS011;66072;50.238;19.228;2024-02-14T09:13:50;40.90;;;25.60;;
77117;SDS011;66072;50.238;19.228;2024-02-14T09:16:17;42.70;;;25.40;;
77117;SDS011;66072;50.238;19.228;2024-02-14T09:18:45;38.00;;;24.10;;
77117;SDS011;66072;50.238;19.228;2024-02-14T09:21:13;36.10;;;23.00;;
77117;SDS011;66072;50.238;19.228;2024-02-14T09:23:44;35.00;;;22.20;;
77117;SDS011;66072;50.238;19.228;2024-02-14T09:26:13;35.10;;;20.50;;
77117;SDS011;66072;50.238;19.228;2024-02-14T09:28:41;35.40;;;22.20;;
77117;SDS011;66072;50.238;19.228;2024-02-14T09:31:10;28.70;;;19.20;;
77117;SDS011;66072;50.238;19.228;2024-02-14T09:33:38;31.70;;;18.20;;
77117;SDS011;66072;50.238;19.228;2024-02-14T09:36:06;24.50;;;16.80;;
77117;SDS011;66072;50.238;19.228;2024-02-14T09:38:35;25.20;;;16.50;;
77117;SDS011;66072;50.238;19.228;2024-02-14T09:41:11;28.60;;;17.60;;
77117;SDS011;66072;50.238;19.228;2024-02-14T09:43:43;20.50;;;13.20;;
77117;SDS011;66072;50.238;19.228;2024-02-14T09:46:13;19.50;;;12.00;;
77117;SDS011;66072;50.238;19.228;2024-02-14T09:48:44;20.60;;;12.40;;
77117;SDS011;66072;50.238;19.228;2024-02-14T09:51:13;17.10;;;10.20;;
77117;SDS011;66072;50.238;19.228;2024-02-14T09:53:41;15.30;;;9.20;;
77117;SDS011;66072;50.238;19.228;2024-02-14T09:56:10;12.50;;;8.70;;
77117;SDS011;66072;50.238;19.228;2024-02-14T09:58:39;15.20;;;8.50;;
77117;SDS011;66072;50.238;19.228;2024-02-14T10:01:08;14.00;;;8.20;;
77117;SDS011;66072;50.238;19.228;2024-02-14T10:03:36;15.90;;;8.40;;
77117;SDS011;66072;50.238;19.228;2024-02-14T10:06:03;10.90;;;7.20;;
77117;SDS011;66072;50.238;19.228;2024-02-14T10:08:32;12.30;;;7.40;;
77117;SDS011;66072;50.238;19.228;2024-02-14T10:11:00;13.90;;;7.30;;
77117;SDS011;66072;50.238;19.228;2024-02-14T10:13:28;10.00;;;5.90;;
77117;SDS011;66072;50.238;19.228;2024-02-14T10:15:55;9.30;;;4.70;;
77117;SDS011;66072;50.238;19.228;2024-02-14T10:18:23;8.50;;;4.30;;
77117;SDS011;66072;50.238;19.228;2024-02-14T10:20:55;6.80;;;4.10;;
77117;SDS011;66072;50.238;19.228;2024-02-14T10:23:24;6.70;;;4.30;;
77117;SDS011;66072;50.238;19.228;2024-02-14T10:25:54;8.70;;;4.90;;
77117;SDS011;66072;50.238;19.228;2024-02-14T10:28:22;7.00;;;4.40;;
77117;SDS011;66072;50.238;19.228;2024-02-14T10:31:05;7.10;;;4.60;;
77117;SDS011;66072;50.238;19.228;2024-02-14T10:33:33;8.00;;;5.00;;
77117;SDS011;66072;50.238;19.228;2024-02-14T10:36:01;10.70;;;5.40;;
77117;SDS011;66072;50.238;19.228;2024-02-14T10:38:32;10.90;;;5.80;;
77117;SDS011;66072;50.238;19.228;2024-02-14T10:41:00;8.60;;;5.00;;
77117;SDS011;66072;50.238;19.228;2024-02-14T10:43:29;7.10;;;4.20;;
77117;SDS011;66072;50.238;19.228;2024-02-14T10:45:58;9.00;;;6.20;;
77117;SDS011;66072;50.238;19.228;2024-02-14T10:48:29;8.60;;;4.90;;
77117;SDS011;66072;50.238;19.228;2024-02-14T10:50:59;8.50;;;4.60;;
77117;SDS011;66072;50.238;19.228;2024-02-14T10:53:32;8.80;;;5.00;;
77117;SDS011;66072;50.238;19.228;2024-02-14T10:56:01;8.30;;;4.80;;
77117;SDS011;66072;50.238;19.228;2024-02-14T10:58:29;9.00;;;5.40;;
77117;SDS011;66072;50.238;19.228;2024-02-14T11:00:59;10.20;;;5.40;;
77117;SDS011;66072;50.238;19.228;2024-02-14T11:03:28;8.80;;;5.50;;
77117;SDS011;66072;50.238;19.228;2024-02-14T11:05:56;7.70;;;5.10;;
77117;SDS011;66072;50.238;19.228;2024-02-14T11:08:29;8.30;;;5.10;;
77117;SDS011;66072;50.238;19.228;2024-02-14T11:10:58;11.00;;;6.70;;
77117;SDS011;66072;50.238;19.228;2024-02-14T11:13:28;9.80;;;5.60;;
77117;SDS011;66072;50.238;19.228;2024-02-14T11:15:57;8.90;;;5.80;;
77117;SDS011;66072;50.238;19.228;2024-02-14T11:18:28;8.10;;;5.20;;
77117;SDS011;66072;50.238;19.228;2024-02-14T11:20:56;6.20;;;3.90;;
77117;SDS011;66072;50.238;19.228;2024-02-14T11:23:25;8.10;;;4.80;;
77117;SDS011;66072;50.238;19.228;2024-02-14T11:26:27;7.90;;;4.90;;
77117;SDS011;66072;50.238;19.228;2024-02-14T11:28:47;8.40;;;5.20;;
77117;SDS011;66072;50.238;19.228;2024-02-14T11:31:17;9.50;;;5.70;;
77117;SDS011;66072;50.238;19.228;2024-02-14T11:33:45;9.50;;;4.90;;
77117;SDS011;66072;50.238;19.228;2024-02-14T11:36:13;8.30;;;5.70;;
77117;SDS011;66072;50.238;19.228;2024-02-14T11:38:41;8.90;;;5.60;;
77117;SDS011;66072;50.238;19.228;2024-02-14T11:41:10;9.90;;;5.90;;
77117;SDS011;66072;50.238;19.228;2024-02-14T11:43:38;9.30;;;5.80;;
77117;SDS011;66072;50.238;19.228;2024-02-14T11:46:06;11.80;;;6.10;;
77117;SDS011;66072;50.238;19.228;2024-02-14T11:48:33;10.90;;;6.20;;
77117;SDS011;66072;50.238;19.228;2024-02-14T11:51:02;10.90;;;6.60;;
77117;SDS011;66072;50.238;19.228;2024-02-14T11:53:31;9.00;;;6.20;;
77117;SDS011;66072;50.238;19.228;2024-02-14T11:55:59;9.90;;;5.40;;
77117;SDS011;66072;50.238;19.228;2024-02-14T11:58:27;8.90;;;6.30;;
77117;SDS011;66072;50.238;19.228;2024-02-14T12:00:54;10.80;;;6.10;;
77117;SDS011;66072;50.238;19.228;2024-02-14T12:03:22;10.30;;;6.30;;
77117;SDS011;66072;50.238;19.228;2024-02-14T12:05:52;12.00;;;7.10;;
77117;SDS011;66072;50.238;19.228;2024-02-14T12:08:21;10.90;;;7.30;;
77117;SDS011;66072;50.238;19.228;2024-02-14T12:10:50;13.60;;;6.70;;
77117;SDS011;66072;50.238;19.228;2024-02-14T12:13:19;10.80;;;7.50;;
77117;SDS011;66072;50.238;19.228;2024-02-14T12:15:48;8.80;;;5.90;;
77117;SDS011;66072;50.238;19.228;2024-02-14T12:18:18;9.10;;;7.00;;
77117;SDS011;66072;50.238;19.228;2024-02-14T12:20:47;9.80;;;6.50;;
77117;SDS011;66072;50.238;19.228;2024-02-14T12:23:17;10.70;;;6.70;;
77117;SDS011;66072;50.238;19.228;2024-02-14T12:25:46;8.30;;;6.10;;
77117;SDS011;66072;50.238;19.228;2024-02-14T12:28:17;10.20;;;6.20;;
77117;SDS011;66072;50.238;19.228;2024-02-14T12:30:46;9.40;;;6.30;;
77117;SDS011;66072;50.238;19.228;2024-02-14T12:33:15;10.80;;;6.50;;
77117;SDS011;66072;50.238;19.228;2024-02-14T12:35:46;9.90;;;6.60;;
77117;SDS011;66072;50.238;19.228;2024-02-14T12:38:17;11.00;;;6.50;;
77117;SDS011;66072;50.238;19.228;2024-02-14T12:43:14;7.00;;;3.80;;
77117;SDS011;66072;50.238;19.228;2024-02-14T12:45:43;6.20;;;3.40;;
77117;SDS011;66072;50.238;19.228;2024-02-14T12:48:12;7.40;;;4.00;;
77117;SDS011;66072;50.238;19.228;2024-02-14T12:50:41;6.70;;;4.00;;
77117;SDS011;66072;50.238;19.228;2024-02-14T12:53:09;7.20;;;4.20;;
77117;SDS011;66072;50.238;19.228;2024-02-14T12:55:36;6.10;;;3.90;;
77117;SDS011;66072;50.238;19.228;2024-02-14T12:58:04;8.10;;;4.30;;
77117;SDS011;66072;50.238;19.228;2024-02-14T13:00:32;7.20;;;4.00;;
77117;SDS011;66072;50.238;19.228;2024-02-14T13:03:00;7.20;;;4.10;;
77117;SDS011;66072;50.238;19.228;2024-02-14T13:05:28;6.40;;;4.20;;
77117;SDS011;66072;50.238;19.228;2024-02-14T13:07:56;6.70;;;3.70;;
77117;SDS011;66072;50.238;19.228;2024-02-14T13:10:24;4.90;;;3.60;;
77117;SDS011;66072;50.238;19.228;2024-02-14T13:12:52;6.70;;;5.00;;
77117;SDS011;66072;50.238;19.228;2024-02-14T13:15:19;7.40;;;4.20;;
77117;SDS011;66072;50.238;19.228;2024-02-14T13:17:47;8.20;;;4.40;;
77117;SDS011;66072;50.238;19.228;2024-02-14T13:20:15;7.50;;;4.50;;
77117;SDS011;66072;50.238;19.228;2024-02-14T13:22:44;8.10;;;5.10;;
77117;SDS011;66072;50.238;19.228;2024-02-14T13:25:11;8.20;;;4.90;;
77117;SDS011;66072;50.238;19.228;2024-02-14T13:27:43;7.40;;;5.10;;
77117;SDS011;66072;50.238;19.228;2024-02-14T13:30:12;7.90;;;5.10;;
77117;SDS011;66072;50.238;19.228;2024-02-14T13:32:40;6.10;;;4.70;;
77117;SDS011;66072;50.238;19.228;2024-02-14T13:35:08;6.50;;;4.50;;
77117;SDS011;66072;50.238;19.228;2024-02-14T13:37:36;7.40;;;4.80;;
77117;SDS011;66072;50.238;19.228;2024-02-14T13:40:05;9.80;;;5.10;;
77117;SDS011;66072;50.238;19.228;2024-02-14T13:42:34;7.30;;;4.90;;
77117;SDS011;66072;50.238;19.228;2024-02-14T13:45:02;10.90;;;4.50;;
77117;SDS011;66072;50.238;19.228;2024-02-14T13:47:31;6.60;;;4.50;;
77117;SDS011;66072;50.238;19.228;2024-02-14T13:50:00;6.40;;;4.40;;
77117;SDS011;66072;50.238;19.228;2024-02-14T13:52:28;6.50;;;4.90;;
77117;SDS011;66072;50.238;19.228;2024-02-14T13:54:56;7.00;;;4.40;;
77117;SDS011;66072;50.238;19.228;2024-02-14T13:57:27;7.20;;;4.60;;
77117;SDS011;66072;50.238;19.228;2024-02-14T13:59:54;6.30;;;4.30;;
77117;SDS011;66072;50.238;19.228;2024-02-14T14:02:22;6.50;;;4.10;;
77117;SDS011;66072;50.238;19.228;2024-02-14T14:04:50;8.30;;;3.70;;
77117;SDS011;66072;50.238;19.228;2024-02-14T14:07:18;6.30;;;3.70;;
77117;SDS011;66072;50.238;19.228;2024-02-14T14:09:46;5.60;;;3.40;;
77117;SDS011;66072;50.238;19.228;2024-02-14T14:12:14;5.90;;;3.70;;
77117;SDS011;66072;50.238;19.228;2024-02-14T14:14:42;5.10;;;3.50;;
77117;SDS011;66072;50.238;19.228;2024-02-14T14:17:09;6.70;;;3.60;;
77117;SDS011;66072;50.238;19.228;2024-02-14T14:19:37;5.90;;;3.50;;
77117;SDS011;66072;50.238;19.228;2024-02-14T14:22:05;6.10;;;3.60;;
77117;SDS011;66072;50.238;19.228;2024-02-14T14:24:32;6.90;;;4.70;;